Time;durP1;ratioP1;P1;durP2;ratioP2;P2;SDS_P1;SDS_P2;PMS_P1;PMS_P2;Temp;Humidity;BMP_temperature;BMP_pressure;BME280_temperature;BME280_humidity;BME280_pressure;Samples;Min_cycle;Max_cycle;Signal;HPM_P1;HPM_P2
2021/08/20 00:02:22;;;;;;;1.98;1.88;;;;;;;20.66;69.97;95641.66;5008677;28;20215;-87
2021/08/20 00:04:48;;;;;;;2.30;2.20;;;;;;;20.69;69.89;95643.00;5003295;28;20229;-85
2021/08/20 00:07:15;;;;;;;2.78;2.38;;;;;;;20.66;70.87;95641.66;5011197;28;20853;-84
2021/08/20 00:09:41;;;;;;;3.22;2.30;;;;;;;20.67;70.26;95639.84;5008940;28;20225;-82
2021/08/20 00:12:09;;;;;;;1.90;1.80;;;;;;;20.76;69.78;95635.00;5009026;28;20199;-82
2021/08/20 00:14:36;;;;;;;3.70;2.20;;;;;;;20.80;69.71;95639.50;5008751;28;20237;-85
2021/08/20 00:17:04;;;;;;;2.10;2.00;;;;;;;20.82;69.82;95644.50;5009257;28;20199;-82
2021/08/20 00:19:31;;;;;;;2.05;1.95;;;;;;;20.78;70.16;95635.56;5008921;28;20218;-82
2021/08/20 00:21:58;;;;;;;1.90;1.80;;;;;;;20.67;71.23;95635.41;5009062;28;20222;-83
2021/08/20 00:24:24;;;;;;;2.60;1.80;;;;;;;20.58;71.85;95626.38;5007714;28;20377;-84
2021/08/20 00:26:51;;;;;;;4.15;2.10;;;;;;;20.58;71.60;95622.97;5008933;28;20203;-83
2021/08/20 00:29:17;;;;;;;2.03;1.92;;;;;;;20.56;72.01;95619.78;5009578;28;20213;-83
2021/08/20 00:31:43;;;;;;;2.40;2.20;;;;;;;20.54;72.01;95627.09;5009893;28;20203;-86
2021/08/20 00:34:11;;;;;;;1.90;1.67;;;;;;;20.52;72.01;95629.13;5007647;28;20244;-87
2021/08/20 00:36:38;;;;;;;3.78;2.40;;;;;;;20.49;71.01;95622.56;5011086;28;20203;-87
2021/08/20 00:39:04;;;;;;;2.47;2.28;;;;;;;20.41;71.10;95614.28;4999685;28;20290;-87
2021/08/20 00:41:31;;;;;;;2.75;2.42;;;;;;;20.35;70.83;95622.03;5011728;28;20245;-86
2021/08/20 00:43:58;;;;;;;3.10;2.45;;;;;;;20.41;70.47;95627.38;5012067;28;20229;-87
2021/08/20 00:46:25;;;;;;;2.35;2.00;;;;;;;20.47;70.53;95627.22;5011185;28;20558;-83
2021/08/20 00:48:51;;;;;;;2.63;2.42;;;;;;;20.48;70.02;95620.16;5010869;28;20225;-84
2021/08/20 00:51:22;;;;;;;2.70;2.15;;;;;;;20.50;70.19;95616.28;5012361;28;20203;-85
2021/08/20 00:53:49;;;;;;;2.92;2.20;;;;;;;20.48;70.20;95620.16;5014272;28;20223;-82
2021/08/20 00:56:20;;;;;;;2.30;2.10;;;;;;;20.50;70.01;95623.34;5013936;28;20210;-84
2021/08/20 00:58:48;;;;;;;2.85;1.90;;;;;;;20.55;69.85;95626.84;5014455;28;20877;-84
2021/08/20 01:01:15;;;;;;;2.30;2.10;;;;;;;20.61;69.70;95622.47;5014724;28;20268;-87
2021/08/20 01:03:41;;;;;;;3.92;2.08;;;;;;;20.57;70.71;95616.16;5014511;28;20222;-85
2021/08/20 01:06:08;;;;;;;2.08;1.90;;;;;;;20.49;70.97;95611.28;5014614;28;20613;-87
2021/08/20 01:08:38;;;;;;;2.50;2.30;;;;;;;20.42;70.28;95613.25;5014255;28;20199;-85
2021/08/20 01:11:07;;;;;;;2.10;1.90;;;;;;;20.43;70.84;95607.78;5015001;28;20666;-85
2021/08/20 01:13:36;;;;;;;2.22;2.03;;;;;;;20.48;70.06;95609.72;5014288;28;20230;-86
2021/08/20 01:16:04;;;;;;;2.55;1.90;;;;;;;20.47;70.25;95606.31;5015038;28;20207;-84
2021/08/20 01:18:32;;;;;;;2.28;2.08;;;;;;;20.53;70.30;95607.19;5015279;28;20662;-83
2021/08/20 01:21:03;;;;;;;1.92;1.83;;;;;;;20.54;70.42;95601.72;5015302;28;20207;-85
2021/08/20 01:23:31;;;;;;;3.17;2.03;;;;;;;20.52;70.20;95603.78;5014822;28;20231;-87
2021/08/20 01:26:00;;;;;;;2.60;2.30;;;;;;;20.53;70.08;95591.50;5015133;28;20209;-84
2021/08/20 01:28:26;;;;;;;2.47;2.28;;;;;;;20.51;69.95;95596.16;5015289;28;20203;-85
2021/08/20 01:30:59;;;;;;;3.10;2.17;;;;;;;20.49;69.77;95593.00;5015072;28;20578;-83
2021/08/20 01:33:25;;;;;;;2.72;2.05;;;;;;;20.43;70.03;95588.69;5014693;28;20229;-82
2021/08/20 01:35:52;;;;;;;2.53;1.88;;;;;;;20.39;70.30;95595.47;5014958;28;20213;-85
2021/08/20 01:38:18;;;;;;;2.30;2.10;;;;;;;20.27;71.76;95591.03;5015282;28;20245;-86
2021/08/20 01:40:44;;;;;;;2.75;2.30;;;;;;;20.28;71.58;95592.63;5015317;28;20207;-87
2021/08/20 01:43:12;;;;;;;4.22;2.30;;;;;;;20.30;71.37;95587.97;5015476;28;20226;-87
2021/08/20 01:45:39;;;;;;;2.35;1.85;;;;;;;20.30;71.40;95592.41;5014865;28;20207;-87
2021/08/20 01:48:06;;;;;;;2.15;2.00;;;;;;;20.20;72.59;95595.66;5015379;28;20214;-87
2021/08/20 01:50:33;;;;;;;2.22;2.13;;;;;;;20.12;73.33;95596.03;5015267;28;20233;-85
2021/08/20 01:52:59;;;;;;;2.95;2.10;;;;;;;20.12;73.20;95601.25;5014550;28;20225;-84
2021/08/20 01:55:26;;;;;;;2.80;2.08;;;;;;;20.09;73.42;95598.31;5015542;28;20217;-87
2021/08/20 01:57:52;;;;;;;2.20;2.00;;;;;;;20.02;73.57;95594.00;5015218;28;20202;-84
2021/08/20 02:00:21;;;;;;;2.33;2.10;;;;;;;19.97;73.70;95593.16;5015417;28;20207;-87
2021/08/20 02:02:47;;;;;;;3.08;2.20;;;;;;;19.94;74.11;95591.00;5013709;28;20281;-82
2021/08/20 02:05:14;;;;;;;2.78;2.20;;;;;;;19.84;74.74;95589.00;5014532;28;20206;-85
2021/08/20 02:07:40;;;;;;;2.33;2.13;;;;;;;19.78;75.03;95595.16;5015153;28;20199;-86
2021/08/20 02:10:09;;;;;;;2.22;2.08;;;;;;;19.70;75.29;95594.72;5014936;28;20218;-84
2021/08/20 02:12:36;;;;;;;2.42;2.22;;;;;;;19.65;76.21;95595.41;5014066;28;20210;-85
2021/08/20 02:15:02;;;;;;;4.72;2.92;;;;;;;19.69;75.17;95593.16;5014112;28;20210;-83
2021/08/20 02:17:30;;;;;;;3.58;2.10;;;;;;;19.51;77.33;95588.88;5012221;28;20203;-84
2021/08/20 02:19:56;;;;;;;2.10;2.00;;;;;;;19.50;77.19;95582.06;5012296;28;20211;-84
2021/08/20 02:22:23;;;;;;;2.20;2.00;;;;;;;19.48;77.99;95581.47;5012146;28;20222;-84
2021/08/20 02:24:52;;;;;;;2.42;2.22;;;;;;;19.46;78.15;95578.31;5012309;28;20230;-84
2021/08/20 02:27:19;;;;;;;2.40;2.20;;;;;;;19.46;77.29;95584.31;5012137;28;20202;-83
2021/08/20 02:29:46;;;;;;;2.72;2.53;;;;;;;19.39;78.61;95590.72;5012138;28;20295;-84
2021/08/20 02:32:12;;;;;;;2.20;2.00;;;;;;;19.24;79.35;95586.75;5012000;28;20206;-82
2021/08/20 02:34:40;;;;;;;3.13;2.28;;;;;;;19.27;78.60;95583.69;5011773;28;20636;-83
2021/08/20 02:37:07;;;;;;;2.88;2.05;;;;;;;19.40;77.55;95577.44;5011869;28;20199;-84
2021/08/20 02:39:33;;;;;;;2.08;1.95;;;;;;;19.47;77.36;95591.13;5011901;28;20217;-83
2021/08/20 02:42:00;;;;;;;3.38;2.30;;;;;;;19.56;76.91;95599.44;5011854;28;20701;-85
2021/08/20 02:44:27;;;;;;;2.40;2.10;;;;;;;19.59;76.88;95598.97;5011649;28;20219;-82
2021/08/20 02:46:53;;;;;;;2.65;2.35;;;;;;;19.67;76.32;95598.59;5012731;28;20221;-81
2021/08/20 02:49:20;;;;;;;2.72;2.38;;;;;;;19.66;76.65;95595.19;5012474;28;20225;-85
2021/08/20 02:51:48;;;;;;;2.60;2.40;;;;;;;19.69;76.11;95595.75;5012226;28;20195;-83
2021/08/20 02:54:14;;;;;;;2.60;2.40;;;;;;;19.74;75.44;95593.25;5011594;28;20218;-85
2021/08/20 02:56:41;;;;;;;2.63;2.40;;;;;;;19.75;75.56;95587.00;5011198;28;20209;-86
2021/08/20 02:59:07;;;;;;;3.95;2.70;;;;;;;19.70;75.47;95587.69;5011374;28;20209;-86
2021/08/20 03:01:33;;;;;;;3.00;2.40;;;;;;;19.56;76.15;95587.19;5011356;28;20203;-86
2021/08/20 03:04:00;;;;;;;2.80;2.45;;;;;;;19.41;76.68;95592.06;5011485;28;20222;-85
2021/08/20 03:06:26;;;;;;;2.50;2.30;;;;;;;19.41;76.61;95591.28;5011011;28;20725;-85
2021/08/20 03:08:54;;;;;;;2.78;2.58;;;;;;;19.45;76.38;95589.78;5011530;28;20217;-86
2021/08/20 03:11:21;;;;;;;2.55;2.35;;;;;;;19.45;76.74;95590.56;5012239;28;20203;-82
2021/08/20 03:13:47;;;;;;;3.13;2.70;;;;;;;19.53;76.05;95592.06;5011415;28;20218;-82
2021/08/20 03:16:14;;;;;;;2.55;2.35;;;;;;;19.48;77.10;95592.72;5010573;28;20220;-84
2021/08/20 03:18:40;;;;;;;4.32;2.33;;;;;;;19.54;76.47;95586.63;5011325;28;20198;-83
2021/08/20 03:21:07;;;;;;;2.65;2.45;;;;;;;19.49;76.90;95599.53;5011285;28;20234;-85
2021/08/20 03:23:33;;;;;;;2.88;2.67;;;;;;;19.48;77.24;95589.31;5010550;28;20233;-82
2021/08/20 03:26:01;;;;;;;4.10;2.53;;;;;;;19.48;76.54;95592.72;5011042;28;20210;-82
2021/08/20 03:28:28;;;;;;;2.60;2.40;;;;;;;19.54;76.36;95588.44;5011667;28;20211;-84
2021/08/20 03:30:54;;;;;;;2.97;2.45;;;;;;;19.56;76.13;95586.38;5011947;28;20214;-86
2021/08/20 03:33:21;;;;;;;2.72;2.53;;;;;;;19.59;76.23;95599.78;5010719;28;20226;-86
2021/08/20 03:35:47;;;;;;;2.72;2.53;;;;;;;19.58;76.12;95595.56;5011951;28;20790;-85
2021/08/20 03:38:14;;;;;;;3.38;2.25;;;;;;;19.56;75.87;95597.63;5010846;28;20247;-86
2021/08/20 03:40:40;;;;;;;2.80;2.50;;;;;;;19.53;76.36;95597.28;5007789;28;20195;-87
2021/08/20 03:43:08;;;;;;;2.83;2.40;;;;;;;19.52;76.81;95604.34;5002954;28;20759;-85
2021/08/20 03:45:34;;;;;;;2.78;2.33;;;;;;;19.40;77.70;95598.31;4991384;28;20573;-87
2021/08/20 03:48:01;;;;;;;2.60;2.40;;;;;;;19.28;78.77;95592.31;5007235;28;20256;-85
2021/08/20 03:50:27;;;;;;;3.20;2.40;;;;;;;19.27;78.57;95601.16;5010852;28;20203;-85
2021/08/20 03:52:54;;;;;;;7.57;2.58;;;;;;;19.22;78.66;95601.09;5010636;28;20718;-87
2021/08/20 03:55:20;;;;;;;3.70;2.70;;;;;;;19.24;78.83;95601.66;5010343;28;20199;-81
2021/08/20 03:57:49;;;;;;;3.25;2.90;;;;;;;19.20;79.34;95603.13;5011284;28;20202;-82
2021/08/20 04:00:18;;;;;;;3.63;3.33;;;;;;;19.14;80.50;95614.47;5011307;28;20297;-83
2021/08/20 04:02:44;;;;;;;3.67;3.38;;;;;;;19.14;80.31;95610.06;5010525;28;20710;-81
2021/08/20 04:05:11;;;;;;;8.50;4.10;;;;;;;19.16;80.04;95613.22;5010116;28;20685;-84
2021/08/20 04:07:37;;;;;;;3.58;3.28;;;;;;;19.17;79.78;95619.25;5010595;28;20570;-82
2021/08/20 04:10:05;;;;;;;4.13;3.60;;;;;;;19.12;80.21;95624.34;5010858;28;20209;-83
2021/08/20 04:12:31;;;;;;;4.45;2.75;;;;;;;19.04;81.24;95627.31;5011561;28;20201;-83
2021/08/20 04:14:58;;;;;;;3.20;2.92;;;;;;;19.03;79.80;95623.91;5010756;28;20195;-85
2021/08/20 04:17:26;;;;;;;3.05;2.80;;;;;;;19.04;79.83;95627.31;5010660;28;20213;-82
2021/08/20 04:19:52;;;;;;;3.40;3.10;;;;;;;19.12;78.90;95629.56;5010266;28;20201;-84
2021/08/20 04:22:19;;;;;;;3.65;3.33;;;;;;;19.17;78.50;95638.31;5010541;28;20203;-83
2021/08/20 04:24:45;;;;;;;3.25;2.85;;;;;;;19.19;78.89;95625.84;5011241;28;20234;-87
2021/08/20 04:27:12;;;;;;;3.17;2.88;;;;;;;19.37;79.22;95635.34;5009300;28;20210;-85
2021/08/20 04:29:38;;;;;;;3.38;2.60;;;;;;;19.54;78.51;95633.63;5009812;28;20202;-88
2021/08/20 04:32:05;;;;;;;3.03;2.83;;;;;;;19.69;77.28;95634.94;5010157;28;20215;-87
2021/08/20 04:34:33;;;;;;;3.97;2.90;;;;;;;19.83;76.69;95636.25;5009752;28;20302;-88
2021/08/20 04:36:59;;;;;;;4.85;3.03;;;;;;;19.92;76.03;95637.47;5009754;28;20203;-88
2021/08/20 04:39:26;;;;;;;7.72;6.43;;;;;;;19.94;76.40;95641.44;5005782;28;20203;-84
2021/08/20 04:41:53;;;;;;;15.68;6.95;;;;;;;19.92;76.72;95645.31;5007641;28;20232;-85
2021/08/20 04:44:19;;;;;;;6.65;4.43;;;;;;;19.84;76.91;95643.06;5015439;28;20227;-83
2021/08/20 04:46:46;;;;;;;4.85;3.63;;;;;;;19.64;78.95;95652.09;5007612;28;20223;-84
2021/08/20 04:49:12;;;;;;;3.63;3.20;;;;;;;19.60;77.53;95640.53;5008825;28;20203;-84
2021/08/20 04:51:40;;;;;;;3.53;3.22;;;;;;;19.63;77.40;95644.50;5008540;28;20265;-84
2021/08/20 04:54:09;;;;;;;3.70;3.20;;;;;;;19.67;77.54;95645.63;5004460;28;20219;-85
2021/08/20 04:56:36;;;;;;;3.60;3.10;;;;;;;19.73;77.17;95646.53;5002839;28;20233;-84
2021/08/20 04:59:03;;;;;;;3.35;2.90;;;;;;;19.81;77.06;95640.94;5009480;28;20241;-84
2021/08/20 05:01:31;;;;;;;4.50;3.38;;;;;;;19.90;76.66;95644.75;5009369;28;20603;-84
2021/08/20 05:03:58;;;;;;;8.50;3.05;;;;;;;19.92;76.53;95646.13;5011724;28;20230;-86
2021/08/20 05:06:24;;;;;;;14.50;12.98;;;;;;;19.98;76.14;95652.25;5007293;28;20237;-84
2021/08/20 05:08:52;;;;;;;6.80;6.10;;;;;;;19.81;77.04;95654.81;5008027;28;20696;-86
2021/08/20 05:11:19;;;;;;;4.85;3.80;;;;;;;19.79;77.33;95658.66;5007222;28;20207;-84
2021/08/20 05:13:45;;;;;;;4.63;3.67;;;;;;;19.82;77.37;95660.81;5008168;28;20292;-85
2021/08/20 05:16:14;;;;;;;3.80;3.50;;;;;;;19.97;76.67;95667.13;5008806;28;20203;-84
2021/08/20 05:18:41;;;;;;;6.63;3.05;;;;;;;19.98;77.04;95665.31;5009199;28;20210;-84
2021/08/20 05:21:07;;;;;;;3.28;2.97;;;;;;;20.12;76.57;95666.59;5006692;28;20653;-86
2021/08/20 05:23:34;;;;;;;3.30;3.00;;;;;;;20.15;76.67;95666.16;5005909;28;20238;-85
2021/08/20 05:26:02;;;;;;;5.15;3.20;;;;;;;20.25;75.78;95674.16;5007864;28;20286;-83
2021/08/20 05:28:28;;;;;;;3.55;3.10;;;;;;;20.28;75.28;95678.13;5010634;28;20205;-84
2021/08/20 05:30:55;;;;;;;3.65;3.35;;;;;;;20.31;75.48;95688.91;5009323;28;20206;-86
2021/08/20 05:33:21;;;;;;;4.40;3.30;;;;;;;20.33;75.47;95686.88;5008754;28;20227;-85
2021/08/20 05:35:48;;;;;;;4.60;3.00;;;;;;;20.36;75.46;95669.91;5010087;28;20201;-87
2021/08/20 05:38:15;;;;;;;3.30;3.00;;;;;;;20.41;75.38;95682.28;5010990;28;20210;-84
2021/08/20 05:40:41;;;;;;;3.05;2.75;;;;;;;20.41;75.38;95680.47;5009869;28;20289;-85
2021/08/20 05:43:10;;;;;;;4.65;2.65;;;;;;;20.46;75.82;95683.19;5011716;28;20313;-85
2021/08/20 05:45:37;;;;;;;3.88;2.88;;;;;;;20.49;75.73;95680.09;5014982;28;20199;-85
2021/08/20 05:48:05;;;;;;;3.22;2.90;;;;;;;20.50;75.42;95683.50;5015152;28;20207;-86
2021/08/20 05:50:32;;;;;;;3.45;3.13;;;;;;;20.55;75.21;95688.84;5011865;28;20203;-84
2021/08/20 05:52:59;;;;;;;3.50;3.20;;;;;;;20.61;75.14;95691.28;5011508;28;20219;-84
2021/08/20 05:55:25;;;;;;;5.93;3.42;;;;;;;20.64;74.59;95682.19;5012771;28;20199;-84
2021/08/20 05:57:52;;;;;;;4.05;3.33;;;;;;;20.63;74.37;95684.00;5013428;28;20235;-84
2021/08/20 06:00:20;;;;;;;4.00;3.60;;;;;;;20.59;74.48;95672.41;5014361;28;20290;-85
2021/08/20 06:02:47;;;;;;;5.28;3.42;;;;;;;20.59;74.22;95688.09;5014853;28;20223;-86
2021/08/20 06:05:19;;;;;;;3.25;3.00;;;;;;;20.59;73.69;95674.25;5013689;28;20230;-85
2021/08/20 06:07:46;;;;;;;3.70;3.03;;;;;;;20.65;73.74;95668.06;5013840;28;20233;-85
2021/08/20 06:10:13;;;;;;;5.03;4.00;;;;;;;20.58;72.12;95667.44;5013751;28;20209;-87
2021/08/20 06:12:39;;;;;;;5.45;3.80;;;;;;;20.51;72.65;95666.78;5021255;28;20293;-85
2021/08/20 06:15:06;;;;;;;4.35;3.80;;;;;;;20.55;72.51;95671.31;5016968;28;20202;-87
2021/08/20 06:17:34;;;;;;;6.82;3.92;;;;;;;20.53;72.07;95675.19;5012075;28;20591;-86
2021/08/20 06:20:04;;;;;;;3.63;3.33;;;;;;;20.63;72.27;95668.28;5012105;28;20203;-84
2021/08/20 06:22:33;;;;;;;3.75;3.40;;;;;;;20.73;71.85;95675.53;4996271;28;20199;-84
2021/08/20 06:25:01;;;;;;;5.53;3.22;;;;;;;20.88;71.99;95674.97;5011957;28;20261;-85
2021/08/20 06:27:28;;;;;;;3.85;3.55;;;;;;;21.01;71.43;95677.25;5011345;28;20195;-85
2021/08/20 06:29:54;;;;;;;5.20;3.55;;;;;;;21.06;70.87;95679.16;5013132;28;20210;-83
2021/08/20 06:32:21;;;;;;;4.18;3.85;;;;;;;21.04;71.00;95682.81;5013411;28;20195;-84
2021/08/20 06:34:49;;;;;;;4.25;3.40;;;;;;;20.97;70.62;95682.16;5012594;28;20218;-86
2021/08/20 06:37:15;;;;;;;3.90;3.55;;;;;;;20.99;70.85;95682.72;5013262;28;20314;-86
2021/08/20 06:39:51;;;;;;;4.38;3.97;;;;;;;21.00;70.15;95686.94;5013806;28;20210;-86
2021/08/20 06:42:17;;;;;;;4.13;3.63;;;;;;;21.04;70.51;95690.66;5013974;28;20206;-86
2021/08/20 06:44:46;;;;;;;6.50;3.92;;;;;;;21.06;70.50;95695.66;5013004;28;20219;-87
2021/08/20 06:47:17;;;;;;;5.82;3.22;;;;;;;21.03;70.07;95698.75;5023389;28;20203;-86
2021/08/20 06:49:44;;;;;;;5.53;3.30;;;;;;;21.04;70.49;95695.91;5013898;28;20205;-87
2021/08/20 06:52:15;;;;;;;5.47;3.80;;;;;;;21.05;69.97;95691.47;4997684;28;20265;-85
2021/08/20 06:54:42;;;;;;;4.18;3.78;;;;;;;20.98;70.10;95702.09;4993176;28;20220;-86
2021/08/20 06:57:12;;;;;;;4.07;3.67;;;;;;;21.01;69.63;95704.22;4993800;28;20195;-84
2021/08/20 06:59:38;;;;;;;4.00;3.60;;;;;;;21.03;69.97;95701.38;4993686;28;20302;-83
2021/08/20 07:02:05;;;;;;;4.18;3.80;;;;;;;20.99;69.99;95703.66;5003225;28;20207;-83
2021/08/20 07:04:33;;;;;;;4.50;4.10;;;;;;;21.00;69.75;95699.22;5012697;28;20227;-86
2021/08/20 07:07:00;;;;;;;4.55;3.80;;;;;;;20.99;70.06;95695.81;5012021;28;20304;-87
2021/08/20 07:09:40;;;;;;;4.45;4.05;;;;;;;20.96;70.58;95701.56;5013184;28;20199;-85
2021/08/20 07:12:11;;;;;;;5.03;3.92;;;;;;;20.88;70.27;95699.31;5012242;28;20217;-83
2021/08/20 07:14:41;;;;;;;6.88;4.10;;;;;;;20.91;70.96;95700.69;5011935;28;20717;-84
2021/08/20 07:17:11;;;;;;;4.10;3.70;;;;;;;20.97;71.16;95703.13;5015618;28;20266;-83
2021/08/20 07:19:40;;;;;;;5.82;4.00;;;;;;;21.03;70.99;95701.38;5016849;28;20290;-82
2021/08/20 07:22:11;;;;;;;5.07;4.07;;;;;;;21.07;70.91;95701.69;5014175;28;20270;-84
2021/08/20 07:24:41;;;;;;;4.10;3.70;;;;;;;21.09;70.52;95702.25;5016085;28;20218;-85
2021/08/20 07:27:11;;;;;;;5.15;3.70;;;;;;;21.14;70.04;95704.97;5017534;28;20246;-86
2021/08/20 07:29:38;;;;;;;4.53;3.90;;;;;;;21.09;70.15;95707.50;5015461;28;20198;-84
2021/08/20 07:32:05;;;;;;;4.32;3.92;;;;;;;21.13;69.83;95706.00;5014121;28;20210;-85
2021/08/20 07:34:32;;;;;;;5.10;3.80;;;;;;;21.10;70.56;95702.00;5014251;28;20215;-83
2021/08/20 07:36:59;;;;;;;5.55;4.55;;;;;;;21.06;70.20;95711.38;5015343;28;20207;-83
2021/08/20 07:39:26;;;;;;;4.65;4.22;;;;;;;21.05;70.09;95709.78;5014969;28;20298;-84
2021/08/20 07:41:54;;;;;;;5.95;3.70;;;;;;;21.05;69.82;95709.78;5015110;28;20608;-85
2021/08/20 07:44:23;;;;;;;4.40;3.90;;;;;;;21.16;70.39;95702.91;5013971;28;20241;-87
2021/08/20 07:46:50;;;;;;;5.45;3.75;;;;;;;21.28;70.02;95708.84;5026931;28;20194;-85
2021/08/20 07:49:16;;;;;;;4.13;3.80;;;;;;;21.36;69.22;95711.03;5017453;28;20237;-83
2021/08/20 07:51:43;;;;;;;4.25;3.85;;;;;;;21.37;69.23;95710.00;5014575;28;20553;-86
2021/08/20 07:54:10;;;;;;;5.40;4.05;;;;;;;21.43;68.73;95716.13;5009469;28;20756;-86
2021/08/20 07:56:41;;;;;;;4.53;3.80;;;;;;;21.50;68.95;95711.53;4999184;28;20272;-87
2021/08/20 07:59:25;;;;;;;3.80;3.50;;;;;;;21.53;69.08;95711.03;5009732;28;20213;-87
2021/08/20 08:02:05;;;;;;;5.45;3.70;;;;;;;21.67;69.08;95710.44;5013937;28;20214;-84
2021/08/20 08:04:36;;;;;;;4.65;4.10;;;;;;;21.73;68.50;95707.88;5011856;28;20863;-87
2021/08/20 08:07:08;;;;;;;4.65;4.18;;;;;;;21.83;67.73;95713.25;5010277;28;20222;-88
2021/08/20 08:09:45;;;;;;;4.68;4.22;;;;;;;21.87;67.33;95715.16;5009138;28;20211;-86
2021/08/20 08:12:19;;;;;;;4.68;3.95;;;;;;;21.86;67.10;95716.19;5008262;28;20206;-85
2021/08/20 08:14:51;;;;;;;4.70;4.15;;;;;;;21.92;66.74;95704.72;5009107;28;20302;-83
2021/08/20 08:17:23;;;;;;;5.70;4.07;;;;;;;22.07;66.69;95726.94;4996221;28;20210;-83
2021/08/20 08:19:50;;;;;;;6.50;4.47;;;;;;;22.15;66.41;95721.25;5010864;28;20195;-83
2021/08/20 08:22:19;;;;;;;4.30;3.90;;;;;;;22.14;66.51;95723.06;5002207;28;20279;-84
2021/08/20 08:24:51;;;;;;;5.90;4.25;;;;;;;22.14;66.50;95724.91;5002089;28;20233;-83
2021/08/20 08:27:19;;;;;;;4.93;4.07;;;;;;;22.32;66.58;95730.63;5009525;28;20252;-85
2021/08/20 08:29:57;;;;;;;;;;;;;;;;;;;;;
2021/08/20 08:32:27;;;;;;;7.38;4.30;;;;;;;22.23;67.06;95734.72;5004550;28;20701;-85
2021/08/20 08:34:55;;;;;;;4.80;4.30;;;;;;;22.15;68.01;95739.59;5007227;28;20273;-84
2021/08/20 08:37:23;;;;;;;4.40;4.00;;;;;;;22.10;68.79;95739.56;5008571;28;20234;-83
2021/08/20 08:40:15;;;;;;;8.80;4.18;;;;;;;22.01;68.71;95739.19;5009721;28;20226;-84
2021/08/20 08:42:56;;;;;;;4.82;4.32;;;;;;;22.01;67.97;95740.00;5009093;28;20261;-85
2021/08/20 08:45:28;;;;;;;6.07;4.45;;;;;;;21.97;68.37;95743.31;5009369;28;20227;-85
2021/08/20 08:48:05;;;;;;;7.40;4.07;;;;;;;21.92;68.92;95749.31;4990086;28;20235;-83
2021/08/20 08:50:54;;;;;;;6.22;4.05;;;;;;;21.88;70.21;95742.94;5005299;28;20199;-85
2021/08/20 08:53:23;;;;;;;6.07;4.45;;;;;;;21.75;71.69;95743.28;5008794;28;20223;-84
2021/08/20 08:55:59;;;;;;;7.32;4.97;;;;;;;21.78;72.33;95747.25;4995991;28;20231;-83
2021/08/20 08:58:28;;;;;;;6.03;4.30;;;;;;;21.86;71.58;95744.22;4990524;28;20568;-84
2021/08/20 09:00:57;;;;;;;19.90;5.35;;;;;;;21.96;70.44;95739.09;4990455;28;20699;-84
2021/08/20 09:03:30;;;;;;;7.53;4.32;;;;;;;21.86;70.85;95745.03;5005691;28;20230;-85
2021/08/20 09:06:01;;;;;;;4.57;4.03;;;;;;;21.85;70.84;95743.44;4997815;28;20234;-85
2021/08/20 09:08:30;;;;;;;5.13;4.55;;;;;;;21.87;70.07;95738.75;5008556;28;20205;-83
2021/08/20 09:10:59;;;;;;;5.82;4.32;;;;;;;21.98;68.77;95742.25;5010005;28;20215;-84
2021/08/20 09:13:39;;;;;;;6.65;4.40;;;;;;;22.07;68.24;95740.84;5010731;28;20278;-84
2021/08/20 09:16:20;;;;;;;7.50;4.80;;;;;;;22.03;68.65;95737.91;5012869;28;20203;-85
2021/08/20 09:24:43;;;;;;;6.22;5.10;;;;;;;22.43;65.94;95746.47;5009950;28;21035;-86
2021/08/20 09:27:35;;;;;;;4.70;4.30;;;;;;;22.47;66.03;95737.09;5012741;28;20213;-87
2021/08/20 09:30:06;;;;;;;5.40;4.90;;;;;;;22.57;65.61;95734.53;4998335;28;20289;-87
2021/08/20 09:32:36;;;;;;;12.75;5.50;;;;;;;22.86;64.55;95735.13;5012746;28;20217;-86
2021/08/20 09:35:03;;;;;;;5.40;4.90;;;;;;;23.40;62.49;95741.03;5012316;28;20814;-85
2021/08/20 09:37:31;;;;;;;5.65;4.18;;;;;;;23.50;62.94;95735.03;5012481;28;20203;-86
2021/08/20 09:40:02;;;;;;;5.32;4.50;;;;;;;23.81;60.22;95736.84;5012824;28;21418;-87
2021/08/20 09:42:29;;;;;;;5.15;4.75;;;;;;;24.03;60.43;95723.53;5014429;28;20222;-88
2021/08/20 09:45:17;;;;;;;5.72;4.40;;;;;;;24.29;59.61;95727.84;5013307;28;20426;-87
2021/08/20 09:47:47;;;;;;;7.55;4.32;;;;;;;24.34;59.19;95724.44;5013170;28;20199;-87
2021/08/20 09:50:14;;;;;;;5.15;4.20;;;;;;;24.32;58.75;95723.91;5000563;28;20222;-87
2021/08/20 09:52:41;;;;;;;5.75;4.55;;;;;;;24.01;58.46;95721.16;4994120;28;20218;-86
2021/08/20 09:55:10;;;;;;;5.43;3.60;;;;;;;24.09;57.63;95717.22;4993173;28;20291;-86
2021/08/20 09:57:39;;;;;;;4.45;3.42;;;;;;;24.27;55.68;95721.25;4994816;28;20257;-86
2021/08/20 10:00:09;;;;;;;3.65;3.17;;;;;;;24.52;53.23;95713.41;4999382;28;20729;-85
2021/08/20 10:02:38;;;;;;;3.42;2.70;;;;;;;24.46;52.28;95709.19;4993044;28;20227;-84
2021/08/20 10:05:08;;;;;;;2.92;2.50;;;;;;;24.41;47.91;95712.63;4992377;28;20235;-83
2021/08/20 10:07:40;;;;;;;2.60;2.40;;;;;;;24.49;45.04;95708.66;5005077;28;20222;-86
2021/08/20 10:10:09;;;;;;;2.00;1.90;;;;;;;24.56;43.86;95708.44;5013632;28;20203;-87
2021/08/20 10:12:40;;;;;;;2.55;2.33;;;;;;;24.91;43.44;95700.53;5011845;28;20286;-85
2021/08/20 10:15:08;;;;;;;2.42;2.20;;;;;;;25.02;44.16;95704.78;5011093;28;20202;-85
2021/08/20 10:17:35;;;;;;;2.50;2.30;;;;;;;25.21;46.20;95704.25;5011836;28;20577;-84
2021/08/20 10:20:12;;;;;;;2.55;2.20;;;;;;;25.29;44.09;95706.34;5012137;28;20215;-84
2021/08/20 10:22:39;;;;;;;2.30;2.10;;;;;;;25.59;45.17;95702.88;5011897;28;20266;-85
2021/08/20 10:25:10;;;;;;;3.15;2.30;;;;;;;25.83;44.54;95705.72;5009762;28;20321;-86
2021/08/20 10:27:38;;;;;;;4.05;2.50;;;;;;;26.04;43.28;95697.44;5001601;28;20200;-86
2021/08/20 10:30:08;;;;;;;6.70;2.58;;;;;;;26.23;42.81;95700.25;5012029;28;20488;-86
2021/08/20 10:32:34;;;;;;;3.58;2.47;;;;;;;26.34;42.35;95693.91;5011536;28;20213;-87
2021/08/20 10:35:01;;;;;;;2.28;2.10;;;;;;;26.45;39.21;95692.75;5011852;28;20198;-85
2021/08/20 10:37:34;;;;;;;2.88;2.20;;;;;;;26.54;40.27;95686.91;5012298;28;20214;-83
2021/08/20 10:40:22;;;;;;;2.22;2.05;;;;;;;26.76;40.98;95695.97;5012035;28;20202;-84
2021/08/20 10:42:49;;;;;;;3.75;2.80;;;;;;;26.79;43.32;95697.28;5011641;28;20353;-83
2021/08/20 10:49:20;;;;;;;3.28;2.72;;;;;;;26.44;43.17;95695.69;4913650;29;20208;-86
2021/08/20 10:52:00;;;;;;;3.38;2.60;;;;;;;26.03;42.49;95695.06;4999345;28;20210;-86
2021/08/20 10:55:04;;;;;;;3.38;2.35;;;;;;;25.71;44.31;95698.09;5010825;28;20222;-87
2021/08/20 10:57:57;;;;;;;3.45;2.72;;;;;;;25.72;45.10;95703.13;5020142;28;20205;-82
2021/08/20 11:00:25;;;;;;;2.40;2.20;;;;;;;25.49;44.92;95698.41;5013646;28;20207;-83
2021/08/20 11:02:52;;;;;;;2.28;2.08;;;;;;;25.43;45.25;95704.72;5013299;28;20226;-81
2021/08/20 11:05:25;;;;;;;3.72;2.40;;;;;;;25.35;45.82;95700.03;5009969;28;20282;-86
2021/08/20 11:07:51;;;;;;;5.25;2.95;;;;;;;25.28;46.49;95697.66;5010182;28;20334;-84
2021/08/20 11:10:33;;;;;;;4.53;2.60;;;;;;;25.25;45.25;95700.03;5011775;28;20202;-84
2021/08/20 11:13:02;;;;;;;5.25;2.72;;;;;;;25.09;44.50;95694.78;5012564;28;20207;-85
2021/08/20 11:15:43;;;;;;;2.60;2.40;;;;;;;25.24;44.04;95704.50;5011768;28;20198;-85
2021/08/20 11:18:09;;;;;;;3.10;1.98;;;;;;;25.51;45.76;95700.78;5012094;28;20218;-85
2021/08/20 11:20:38;;;;;;;2.33;2.13;;;;;;;25.81;45.43;95701.50;5011323;28;20211;-85
2021/08/20 11:23:15;;;;;;;5.70;2.40;;;;;;;25.92;44.89;95704.09;5010935;28;20235;-84
2021/08/20 11:25:42;;;;;;;1.98;1.88;;;;;;;26.02;45.08;95702.19;5011665;28;20274;-84
2021/08/20 11:28:18;;;;;;;2.33;2.08;;;;;;;26.08;43.01;95701.13;5013495;28;20211;-83
2021/08/20 11:30:54;;;;;;;2.47;2.28;;;;;;;26.10;42.45;95696.38;4997231;28;20359;-81
2021/08/20 11:33:22;;;;;;;3.35;2.47;;;;;;;26.06;43.24;95700.59;5012016;28;20601;-85
2021/08/20 11:35:52;;;;;;;3.38;2.30;;;;;;;26.17;43.30;95696.84;5010988;28;20199;-85
2021/08/20 11:38:32;;;;;;;2.30;2.10;;;;;;;26.27;43.53;95703.13;5012183;28;20721;-86
2021/08/20 11:41:03;;;;;;;2.40;2.20;;;;;;;26.37;42.71;95705.75;5012425;28;20215;-84
2021/08/20 11:43:32;;;;;;;2.53;2.28;;;;;;;26.40;41.32;95703.34;5010595;28;20241;-85
2021/08/20 11:46:01;;;;;;;4.45;2.33;;;;;;;26.44;42.30;95698.31;5010663;28;20215;-83
2021/08/20 11:48:28;;;;;;;2.90;2.35;;;;;;;26.59;43.28;95697.44;5011298;28;20228;-82
2021/08/20 11:50:59;;;;;;;2.58;2.35;;;;;;;26.63;41.33;95701.88;5010772;28;20310;-84
2021/08/20 11:53:26;;;;;;;2.53;2.15;;;;;;;26.39;39.31;95696.50;5011238;28;20704;-82